AAR793 UAAA-EGSS
Flight info
| Callsign | AAR793 |
|---|---|
| Flight time | N/A |
| Altitude | 32000 |
| Route | TIPSA1A TIPSA M610 ARBOL Z621 ELAHA N147 OTBOR A480 TIMGA B476 METKA L88 RASAM N199 EDATA M11 REBLO UM11 CRM UL746 ODERO DCT DINRO DCT ROMAG DCT BADOR DCT PITOK DCT ELMEK DCT OKG DCT VELIS DCT SWALM DCT TIVUN DCT LARAS DCT NOGRO M40 RINIS RINIS1A |
| Aircraft | B744/H-SDE1E2E3FGHIJ3J7M3P1RWXYZ/LB1D1 |
Departure
| Time | 2026-04-19 06:41 |
|---|---|
| Airport | Almaty International Airport (UAAA) |
Arrival
| Time | N/A |
|---|---|
| Airport | London Stansted Airport (EGSS) |
| Time | Latitude | Longitude | Altitude | Speed | Heading |
|---|---|---|---|---|---|
| 2026-04-19 06:06 | 43.35115 | 77.02156 | 2247 ft | 0 kts | 2° |
| 2026-04-19 06:28 | 43.35104 | 77.02156 | 2247 ft | 3 kts | 2° |
| 2026-04-19 06:29 | 43.35084 | 77.02155 | 2247 ft | 3 kts | 2° |
| 2026-04-19 06:29 | 43.35068 | 77.02154 | 2247 ft | 3 kts | 5° |
| 2026-04-19 06:29 | 43.35052 | 77.02151 | 2247 ft | 3 kts | 32° |
| 2026-04-19 06:29 | 43.35041 | 77.02139 | 2247 ft | 3 kts | 67° |
| 2026-04-19 06:30 | 43.35036 | 77.02115 | 2247 ft | 3 kts | 87° |
| 2026-04-19 06:30 | 43.35036 | 77.02090 | 2247 ft | 2 kts | 92° |
| 2026-04-19 06:30 | 43.35036 | 77.02084 | 2247 ft | 0 kts | 92° |
| 2026-04-19 06:33 | 43.35036 | 77.02092 | 2247 ft | 5 kts | 92° |
| 2026-04-19 06:33 | 43.35015 | 77.02200 | 2247 ft | 18 kts | 117° |
| 2026-04-19 06:33 | 43.34923 | 77.02326 | 2247 ft | 18 kts | 139° |
| 2026-04-19 06:33 | 43.34830 | 77.02437 | 2247 ft | 17 kts | 139° |
| 2026-04-19 06:34 | 43.34778 | 77.02567 | 2247 ft | 16 kts | 66° |
| 2026-04-19 06:34 | 43.34829 | 77.02703 | 2247 ft | 16 kts | 58° |
| 2026-04-19 06:34 | 43.34887 | 77.02824 | 2247 ft | 16 kts | 55° |
| 2026-04-19 06:34 | 43.34958 | 77.02966 | 2247 ft | 19 kts | 56° |
| 2026-04-19 06:35 | 43.35036 | 77.03122 | 2247 ft | 21 kts | 56° |
| 2026-04-19 06:35 | 43.35117 | 77.03281 | 2247 ft | 20 kts | 56° |
| 2026-04-19 06:35 | 43.35203 | 77.03457 | 2247 ft | 22 kts | 56° |
| 2026-04-19 06:35 | 43.35287 | 77.03630 | 2247 ft | 21 kts | 56° |
| 2026-04-19 06:36 | 43.35380 | 77.03813 | 2247 ft | 28 kts | 56° |
| 2026-04-19 06:36 | 43.35492 | 77.04043 | 2247 ft | 28 kts | 55° |
| 2026-04-19 06:36 | 43.35596 | 77.04250 | 2247 ft | 26 kts | 56° |
| 2026-04-19 06:36 | 43.35712 | 77.04477 | 2247 ft | 34 kts | 56° |
| 2026-04-19 06:37 | 43.35841 | 77.04745 | 2247 ft | 32 kts | 56° |
| 2026-04-19 06:37 | 43.35962 | 77.04994 | 2247 ft | 30 kts | 56° |
| 2026-04-19 06:37 | 43.36075 | 77.05226 | 2247 ft | 28 kts | 57° |
| 2026-04-19 06:37 | 43.36183 | 77.05437 | 2247 ft | 26 kts | 55° |
| 2026-04-19 06:38 | 43.36280 | 77.05633 | 2247 ft | 24 kts | 56° |
| 2026-04-19 06:38 | 43.36369 | 77.05814 | 2247 ft | 22 kts | 56° |
| 2026-04-19 06:38 | 43.36454 | 77.05988 | 2247 ft | 21 kts | 56° |
| 2026-04-19 06:38 | 43.36493 | 77.06126 | 2247 ft | 13 kts | 130° |
| 2026-04-19 06:39 | 43.36420 | 77.06187 | 2247 ft | 12 kts | 168° |
| 2026-04-19 06:39 | 43.36337 | 77.06181 | 2247 ft | 12 kts | 211° |
| 2026-04-19 06:39 | 43.36299 | 77.06124 | 2247 ft | 0 kts | 235° |
| 2026-04-19 06:39 | 43.36299 | 77.06123 | 2247 ft | 2 kts | 235° |
| 2026-04-19 06:40 | 43.36236 | 77.05999 | 2247 ft | 38 kts | 236° |
| 2026-04-19 06:40 | 43.35980 | 77.05493 | 2247 ft | 88 kts | 234° |
| 2026-04-19 06:40 | 43.35536 | 77.04583 | 2247 ft | 140 kts | 234° |
| 2026-04-19 06:40 | 43.34876 | 77.03279 | 2249 ft | 191 kts | 234° |
| 2026-04-19 06:41 | 43.34093 | 77.01687 | 2680 ft | 193 kts | 235° |
| 2026-04-19 06:41 | 43.33410 | 77.00204 | 3730 ft | 182 kts | 235° |
| 2026-04-19 06:41 | 43.32719 | 76.98692 | 4245 ft | 194 kts | 236° |
| 2026-04-19 06:41 | 43.31981 | 76.97077 | 4623 ft | 204 kts | 236° |
| 2026-04-19 06:42 | 43.31226 | 76.95406 | 5097 ft | 208 kts | 238° |
| 2026-04-19 06:42 | 43.30830 | 76.93480 | 5452 ft | 218 kts | 268° |
| 2026-04-19 06:42 | 43.31280 | 76.91456 | 5599 ft | 230 kts | 300° |
| 2026-04-19 06:42 | 43.32439 | 76.89939 | 5798 ft | 233 kts | 324° |
| 2026-04-19 06:43 | 43.33854 | 76.88870 | 6093 ft | 234 kts | 335° |
| 2026-04-19 06:43 | 43.35393 | 76.87969 | 6233 ft | 248 kts | 340° |
| 2026-04-19 06:43 | 43.37046 | 76.87038 | 6362 ft | 267 kts | 339° |
| 2026-04-19 06:43 | 43.38799 | 76.85953 | 6561 ft | 284 kts | 338° |
| 2026-04-19 06:44 | 43.40589 | 76.84758 | 7121 ft | 289 kts | 336° |
| 2026-04-19 06:44 | 43.42400 | 76.83481 | 7629 ft | 296 kts | 335° |
| 2026-04-19 06:44 | 43.44174 | 76.82072 | 8324 ft | 294 kts | 326° |
| 2026-04-19 06:44 | 43.45645 | 76.80160 | 9081 ft | 288 kts | 311° |
| 2026-04-19 06:45 | 43.46744 | 76.77894 | 9788 ft | 285 kts | 301° |
| 2026-04-19 06:45 | 43.47631 | 76.75425 | 10227 ft | 291 kts | 294° |
| 2026-04-19 06:45 | 43.48389 | 76.72793 | 10591 ft | 301 kts | 290° |
| 2026-04-19 06:45 | 43.49135 | 76.70038 | 10918 ft | 313 kts | 290° |
| 2026-04-19 06:46 | 43.49932 | 76.67180 | 11254 ft | 326 kts | 291° |
| 2026-04-19 06:46 | 43.50794 | 76.64210 | 11493 ft | 343 kts | 291° |
| 2026-04-19 06:46 | 43.51711 | 76.61080 | 11639 ft | 362 kts | 291° |
| 2026-04-19 06:46 | 43.52679 | 76.57781 | 11786 ft | 382 kts | 291° |
| 2026-04-19 06:47 | 43.53702 | 76.54300 | 11926 ft | 402 kts | 291° |
| 2026-04-19 06:47 | 43.54775 | 76.50657 | 12198 ft | 416 kts | 291° |
| 2026-04-19 06:47 | 43.55846 | 76.46977 | 12791 ft | 423 kts | 291° |
| 2026-04-19 06:47 | 43.56958 | 76.43136 | 13382 ft | 428 kts | 290° |
| 2026-04-19 06:48 | 43.58051 | 76.39357 | 14009 ft | 432 kts | 290° |
| 2026-04-19 06:48 | 43.59156 | 76.35493 | 14699 ft | 434 kts | 288° |
| 2026-04-19 06:48 | 43.59909 | 76.31467 | 15341 ft | 434 kts | 279° |
| 2026-04-19 06:48 | 43.60333 | 76.27341 | 16007 ft | 435 kts | 274° |
| 2026-04-19 06:49 | 43.60583 | 76.23182 | 16654 ft | 436 kts | 271° |
| 2026-04-19 06:49 | 43.60739 | 76.18995 | 17249 ft | 438 kts | 270° |
| 2026-04-19 06:49 | 43.60885 | 76.14727 | 17837 ft | 441 kts | 270° |
| 2026-04-19 06:49 | 43.61050 | 76.10494 | 18433 ft | 443 kts | 271° |
| 2026-04-19 06:50 | 43.61224 | 76.06302 | 19025 ft | 444 kts | 271° |
| 2026-04-19 06:50 | 43.61407 | 76.02039 | 19572 ft | 447 kts | 271° |
| 2026-04-19 06:50 | 43.61596 | 75.97749 | 20087 ft | 450 kts | 271° |
| 2026-04-19 06:50 | 43.61832 | 75.93437 | 20591 ft | 452 kts | 271° |
| 2026-04-19 06:51 | 43.62059 | 75.89105 | 21157 ft | 453 kts | 271° |
| 2026-04-19 06:51 | 43.62260 | 75.84768 | 21660 ft | 455 kts | 270° |
| 2026-04-19 06:51 | 43.62450 | 75.80397 | 22135 ft | 457 kts | 270° |
| 2026-04-19 06:51 | 43.62634 | 75.76010 | 22613 ft | 459 kts | 270° |
| 2026-04-19 06:52 | 43.62818 | 75.71610 | 23078 ft | 460 kts | 270° |
| 2026-04-19 06:52 | 43.63000 | 75.67188 | 23546 ft | 462 kts | 270° |
| 2026-04-19 06:52 | 43.63183 | 75.62757 | 23982 ft | 464 kts | 270° |
| 2026-04-19 06:52 | 43.63366 | 75.58311 | 24390 ft | 465 kts | 270° |
| 2026-04-19 06:53 | 43.63491 | 75.55293 | 24670 ft | 466 kts | 270° |
| 2026-04-19 06:53 | 43.63673 | 75.50822 | 25107 ft | 466 kts | 269° |
| 2026-04-19 06:53 | 43.63851 | 75.46380 | 25816 ft | 460 kts | 269° |
| 2026-04-19 06:53 | 43.64076 | 75.40596 | 26718 ft | 453 kts | 269° |
| 2026-04-19 06:54 | 43.64188 | 75.37671 | 27059 ft | 451 kts | 268° |
| 2026-04-19 06:54 | 43.64351 | 75.33356 | 27578 ft | 448 kts | 268° |
| 2026-04-19 06:54 | 43.64510 | 75.29130 | 28109 ft | 444 kts | 268° |
| 2026-04-19 06:54 | 43.64670 | 75.24846 | 28766 ft | 439 kts | 268° |
| 2026-04-19 06:55 | 43.64820 | 75.20719 | 29247 ft | 435 kts | 267° |
| 2026-04-19 06:55 | 43.64965 | 75.16583 | 29803 ft | 428 kts | 266° |
| 2026-04-19 06:55 | 43.65112 | 75.12493 | 30284 ft | 425 kts | 266° |
| 2026-04-19 06:55 | 43.65256 | 75.08426 | 30601 ft | 424 kts | 266° |
| 2026-04-19 06:56 | 43.65418 | 75.04360 | 30977 ft | 423 kts | 267° |
| 2026-04-19 06:56 | 43.65594 | 75.00332 | 31393 ft | 420 kts | 266° |
| 2026-04-19 06:56 | 43.65759 | 74.96309 | 31687 ft | 419 kts | 266° |
| 2026-04-19 06:56 | 43.65916 | 74.92298 | 32014 ft | 418 kts | 266° |
| 2026-04-19 06:57 | 43.66211 | 74.84248 | 32093 ft | 420 kts | 266° |
| 2026-04-19 06:57 | 43.66495 | 74.76176 | 32091 ft | 421 kts | 265° |
| 2026-04-19 06:58 | 43.66772 | 74.68113 | 32088 ft | 420 kts | 265° |
| 2026-04-19 06:58 | 43.67074 | 74.60052 | 32090 ft | 421 kts | 265° |
| 2026-04-19 06:59 | 43.67352 | 74.51983 | 32088 ft | 420 kts | 265° |
| 2026-04-19 06:59 | 43.67599 | 74.43936 | 32087 ft | 419 kts | 265° |
| 2026-04-19 07:00 | 43.67837 | 74.35896 | 32086 ft | 418 kts | 265° |
| 2026-04-19 07:00 | 43.68072 | 74.27855 | 32088 ft | 419 kts | 265° |
| 2026-04-19 07:01 | 43.68309 | 74.19806 | 32083 ft | 419 kts | 264° |
| 2026-04-19 07:01 | 43.68590 | 74.11766 | 32088 ft | 419 kts | 265° |
| 2026-04-19 07:02 | 43.68833 | 74.03725 | 32088 ft | 419 kts | 264° |
| 2026-04-19 07:02 | 43.69054 | 73.95688 | 32089 ft | 419 kts | 264° |
| 2026-04-19 07:03 | 43.69268 | 73.87696 | 32089 ft | 419 kts | 264° |
| 2026-04-19 07:03 | 43.69485 | 73.79583 | 32089 ft | 420 kts | 264° |
| 2026-04-19 07:04 | 43.69515 | 73.71589 | 32090 ft | 417 kts | 260° |
| 2026-04-19 07:04 | 43.69108 | 73.63630 | 32090 ft | 414 kts | 258° |
| 2026-04-19 07:05 | 43.68641 | 73.55687 | 32090 ft | 415 kts | 259° |
| 2026-04-19 07:05 | 43.68190 | 73.47730 | 32091 ft | 416 kts | 259° |
| 2026-04-19 07:06 | 43.67741 | 73.39744 | 32091 ft | 418 kts | 259° |
| 2026-04-19 07:06 | 43.67290 | 73.31738 | 32092 ft | 419 kts | 259° |
| 2026-04-19 07:07 | 43.66869 | 73.23700 | 32091 ft | 420 kts | 259° |
| 2026-04-19 07:07 | 43.66469 | 73.15638 | 32092 ft | 421 kts | 259° |
| 2026-04-19 07:08 | 43.66039 | 73.07560 | 32091 ft | 422 kts | 259° |
| 2026-04-19 07:08 | 43.65592 | 72.99467 | 32092 ft | 424 kts | 259° |
| 2026-04-19 07:09 | 43.65133 | 72.91346 | 32091 ft | 425 kts | 259° |
| 2026-04-19 07:09 | 43.64666 | 72.83201 | 32091 ft | 426 kts | 259° |
| 2026-04-19 07:10 | 43.64190 | 72.75033 | 32092 ft | 427 kts | 259° |
| 2026-04-19 07:10 | 43.63707 | 72.66850 | 32091 ft | 428 kts | 259° |
| 2026-04-19 07:11 | 43.63216 | 72.58633 | 32091 ft | 430 kts | 259° |
| 2026-04-19 07:11 | 43.62718 | 72.50395 | 32091 ft | 431 kts | 259° |
| 2026-04-19 07:12 | 43.62214 | 72.42149 | 32091 ft | 432 kts | 259° |
| 2026-04-19 07:12 | 43.61702 | 72.33885 | 32091 ft | 432 kts | 259° |
| 2026-04-19 07:13 | 43.61184 | 72.25621 | 32090 ft | 433 kts | 259° |
| 2026-04-19 07:13 | 43.60658 | 72.17341 | 32092 ft | 433 kts | 259° |
| 2026-04-19 07:14 | 43.60128 | 72.09064 | 32090 ft | 434 kts | 259° |
| 2026-04-19 07:14 | 43.59591 | 72.00776 | 32089 ft | 434 kts | 259° |
| 2026-04-19 07:15 | 43.59047 | 71.92474 | 32088 ft | 435 kts | 259° |
| 2026-04-19 07:16 | 43.58215 | 71.79977 | 32088 ft | 436 kts | 259° |
| 2026-04-19 07:16 | 43.57653 | 71.71638 | 32064 ft | 436 kts | 259° |
| 2026-04-19 07:17 | 43.57085 | 71.63305 | 32063 ft | 437 kts | 259° |
| 2026-04-19 07:17 | 43.56510 | 71.54949 | 32061 ft | 438 kts | 259° |
| 2026-04-19 07:18 | 43.55927 | 71.46581 | 32059 ft | 439 kts | 259° |
| 2026-04-19 07:18 | 43.55337 | 71.38212 | 32063 ft | 440 kts | 259° |
| 2026-04-19 07:19 | 43.54748 | 71.29860 | 32059 ft | 441 kts | 259° |
| 2026-04-19 07:19 | 43.54183 | 71.21428 | 32065 ft | 442 kts | 259° |
| 2026-04-19 07:20 | 43.53564 | 71.12982 | 32066 ft | 444 kts | 259° |
| 2026-04-19 07:20 | 43.52926 | 71.04498 | 32067 ft | 446 kts | 259° |
| 2026-04-19 07:21 | 43.52282 | 70.95991 | 32067 ft | 447 kts | 259° |
| 2026-04-19 07:21 | 43.51635 | 70.87447 | 32068 ft | 449 kts | 259° |
| 2026-04-19 07:22 | 43.50972 | 70.78875 | 32070 ft | 451 kts | 259° |
| 2026-04-19 07:22 | 43.50290 | 70.70278 | 32071 ft | 452 kts | 259° |
| 2026-04-19 07:23 | 43.49597 | 70.61648 | 32072 ft | 454 kts | 259° |
| 2026-04-19 07:23 | 43.48896 | 70.52989 | 32074 ft | 456 kts | 260° |
| 2026-04-19 07:24 | 43.48187 | 70.44309 | 32076 ft | 457 kts | 260° |
| 2026-04-19 07:24 | 43.47499 | 70.35603 | 32077 ft | 458 kts | 261° |
| 2026-04-19 07:25 | 43.46828 | 70.26871 | 32079 ft | 459 kts | 260° |
| 2026-04-19 07:25 | 43.46127 | 70.18123 | 32080 ft | 460 kts | 261° |
| 2026-04-19 07:26 | 43.45440 | 70.09361 | 32083 ft | 461 kts | 260° |
| 2026-04-19 07:26 | 43.44697 | 70.00599 | 32085 ft | 461 kts | 260° |
| 2026-04-19 07:27 | 43.43939 | 69.91818 | 32086 ft | 464 kts | 261° |
| 2026-04-19 07:27 | 43.43172 | 69.82973 | 32089 ft | 466 kts | 261° |
| 2026-04-19 07:28 | 43.42406 | 69.74131 | 32091 ft | 465 kts | 261° |
| 2026-04-19 07:28 | 43.41665 | 69.65294 | 32092 ft | 465 kts | 261° |
| 2026-04-19 07:29 | 43.40960 | 69.56452 | 32087 ft | 465 kts | 261° |
| 2026-04-19 07:29 | 43.40228 | 69.47617 | 32079 ft | 465 kts | 261° |
| 2026-04-19 07:30 | 43.39462 | 69.38789 | 32092 ft | 465 kts | 261° |
| 2026-04-19 07:30 | 43.38685 | 69.29948 | 32090 ft | 466 kts | 261° |
| 2026-04-19 07:31 | 43.37908 | 69.21112 | 32090 ft | 466 kts | 261° |
| 2026-04-19 07:31 | 43.37150 | 69.12260 | 32088 ft | 467 kts | 262° |
| 2026-04-19 07:32 | 43.36415 | 69.03458 | 32087 ft | 467 kts | 262° |
| 2026-04-19 07:32 | 43.35722 | 68.94569 | 32085 ft | 468 kts | 262° |
| 2026-04-19 07:33 | 43.34976 | 68.85684 | 32084 ft | 468 kts | 262° |
| 2026-04-19 07:33 | 43.34204 | 68.76790 | 32084 ft | 469 kts | 262° |
| 2026-04-19 07:34 | 43.33425 | 68.67887 | 32083 ft | 470 kts | 262° |
| 2026-04-19 07:34 | 43.32646 | 68.58975 | 32083 ft | 470 kts | 262° |
| 2026-04-19 07:35 | 43.31663 | 68.50095 | 32083 ft | 471 kts | 259° |
| 2026-04-19 07:35 | 43.30556 | 68.41240 | 32082 ft | 471 kts | 259° |
| 2026-04-19 07:36 | 43.29297 | 68.32410 | 32083 ft | 471 kts | 256° |
| 2026-04-19 07:36 | 43.27638 | 68.23713 | 32083 ft | 471 kts | 255° |
| 2026-04-19 07:37 | 43.26038 | 68.14986 | 32084 ft | 472 kts | 255° |
| 2026-04-19 07:37 | 43.24416 | 68.06260 | 32085 ft | 472 kts | 255° |
| 2026-04-19 07:38 | 43.23050 | 67.99012 | 32085 ft | 472 kts | 255° |
| 2026-04-19 07:38 | 43.21397 | 67.90271 | 32086 ft | 475 kts | 256° |
| 2026-04-19 07:39 | 43.19739 | 67.81505 | 32086 ft | 475 kts | 256° |
| 2026-04-19 07:39 | 43.18103 | 67.72741 | 32087 ft | 474 kts | 256° |
| 2026-04-19 07:40 | 43.16439 | 67.64007 | 32088 ft | 474 kts | 255° |
| 2026-04-19 07:40 | 43.14756 | 67.55270 | 32089 ft | 474 kts | 255° |
| 2026-04-19 07:41 | 43.13073 | 67.46542 | 32089 ft | 474 kts | 256° |
| 2026-04-19 07:41 | 43.11387 | 67.37829 | 32089 ft | 473 kts | 255° |
| 2026-04-19 07:42 | 43.09690 | 67.29126 | 32090 ft | 474 kts | 255° |
| 2026-04-19 07:42 | 43.07989 | 67.20419 | 32091 ft | 474 kts | 256° |
| 2026-04-19 07:43 | 43.06351 | 67.11699 | 32091 ft | 473 kts | 256° |
| 2026-04-19 07:43 | 43.04649 | 67.03017 | 32092 ft | 473 kts | 255° |
| 2026-04-19 07:44 | 43.02928 | 66.94347 | 32092 ft | 473 kts | 255° |
| 2026-04-19 07:44 | 43.01200 | 66.85671 | 32092 ft | 473 kts | 255° |
| 2026-04-19 07:45 | 42.99473 | 66.77002 | 32093 ft | 473 kts | 255° |
| 2026-04-19 07:45 | 42.97723 | 66.68335 | 32093 ft | 473 kts | 255° |
| 2026-04-19 07:46 | 42.95961 | 66.59692 | 32093 ft | 472 kts | 255° |
| 2026-04-19 07:46 | 42.94224 | 66.51046 | 32088 ft | 472 kts | 256° |
| 2026-04-19 07:47 | 42.92526 | 66.42390 | 32087 ft | 472 kts | 255° |
| 2026-04-19 07:47 | 42.90773 | 66.33749 | 32088 ft | 472 kts | 255° |
| 2026-04-19 07:48 | 42.89006 | 66.25119 | 32088 ft | 473 kts | 255° |
| 2026-04-19 07:48 | 42.87235 | 66.16490 | 32085 ft | 473 kts | 255° |
| 2026-04-19 07:49 | 42.85466 | 66.07857 | 32084 ft | 473 kts | 255° |
| 2026-04-19 07:49 | 42.83708 | 65.99289 | 32085 ft | 472 kts | 255° |
| 2026-04-19 07:50 | 42.81906 | 65.90694 | 32084 ft | 472 kts | 255° |
| 2026-04-19 07:50 | 42.80097 | 65.82100 | 32085 ft | 472 kts | 255° |
| 2026-04-19 07:51 | 42.78288 | 65.73511 | 32084 ft | 472 kts | 255° |
| 2026-04-19 07:51 | 42.76465 | 65.64943 | 32083 ft | 471 kts | 255° |
| 2026-04-19 07:52 | 42.74632 | 65.56377 | 32084 ft | 472 kts | 255° |
| 2026-04-19 07:52 | 42.72790 | 65.47812 | 32084 ft | 472 kts | 255° |
| 2026-04-19 07:53 | 42.70942 | 65.39248 | 32084 ft | 471 kts | 255° |
| 2026-04-19 07:53 | 42.69098 | 65.30708 | 32083 ft | 471 kts | 255° |
| 2026-04-19 07:54 | 42.67306 | 65.22140 | 32083 ft | 471 kts | 255° |
| 2026-04-19 07:54 | 42.65477 | 65.13591 | 32082 ft | 471 kts | 255° |
| 2026-04-19 07:55 | 42.63630 | 65.05056 | 32081 ft | 471 kts | 255° |
| 2026-04-19 07:55 | 42.61775 | 64.96537 | 32080 ft | 471 kts | 255° |
| 2026-04-19 07:56 | 42.59912 | 64.88016 | 32073 ft | 471 kts | 255° |
| 2026-04-19 07:56 | 42.58040 | 64.79493 | 32071 ft | 471 kts | 255° |
| 2026-04-19 07:57 | 42.56163 | 64.70991 | 32071 ft | 470 kts | 255° |
| 2026-04-19 07:57 | 42.54297 | 64.62492 | 32070 ft | 470 kts | 256° |
| 2026-04-19 07:58 | 42.52451 | 64.54048 | 32069 ft | 470 kts | 255° |
| 2026-04-19 07:58 | 42.50549 | 64.45573 | 32066 ft | 470 kts | 255° |
| 2026-04-19 07:59 | 42.48638 | 64.37108 | 32064 ft | 470 kts | 255° |
| 2026-04-19 07:59 | 42.46724 | 64.28649 | 32063 ft | 470 kts | 255° |
| 2026-04-19 08:00 | 42.44819 | 64.20199 | 32063 ft | 469 kts | 256° |
| 2026-04-19 08:00 | 42.42932 | 64.11749 | 32061 ft | 469 kts | 255° |
| 2026-04-19 08:01 | 42.41027 | 64.03317 | 32060 ft | 468 kts | 255° |
| 2026-04-19 08:01 | 42.39107 | 63.94902 | 32060 ft | 468 kts | 255° |
| 2026-04-19 08:02 | 42.37156 | 63.86506 | 32065 ft | 468 kts | 255° |
| 2026-04-19 08:02 | 42.35212 | 63.78165 | 32059 ft | 468 kts | 255° |
| 2026-04-19 08:03 | 42.33251 | 63.69773 | 32053 ft | 469 kts | 255° |
| 2026-04-19 08:03 | 42.31282 | 63.61373 | 32051 ft | 469 kts | 255° |
| 2026-04-19 08:04 | 42.29328 | 63.52970 | 32050 ft | 469 kts | 256° |
| 2026-04-19 08:04 | 42.27398 | 63.44563 | 32049 ft | 469 kts | 256° |
| 2026-04-19 08:05 | 42.25461 | 63.36142 | 32048 ft | 469 kts | 256° |
| 2026-04-19 08:05 | 42.23484 | 63.27742 | 32046 ft | 470 kts | 256° |
| 2026-04-19 08:06 | 42.21480 | 63.19350 | 32046 ft | 470 kts | 256° |
| 2026-04-19 08:06 | 42.19484 | 63.11018 | 32044 ft | 471 kts | 256° |
| 2026-04-19 08:07 | 42.17468 | 63.02615 | 32044 ft | 471 kts | 256° |
| 2026-04-19 08:07 | 42.15466 | 62.94211 | 32042 ft | 471 kts | 257° |
| 2026-04-19 08:08 | 42.13446 | 62.85821 | 32041 ft | 471 kts | 257° |
| 2026-04-19 08:08 | 42.11423 | 62.77436 | 32040 ft | 471 kts | 257° |
| 2026-04-19 08:09 | 42.09399 | 62.69057 | 32038 ft | 471 kts | 257° |
| 2026-04-19 08:09 | 42.07363 | 62.60684 | 32034 ft | 470 kts | 257° |
| 2026-04-19 08:10 | 42.05328 | 62.52374 | 32036 ft | 470 kts | 257° |
| 2026-04-19 08:10 | 42.03319 | 62.44014 | 32036 ft | 470 kts | 258° |
| 2026-04-19 08:11 | 42.01284 | 62.35662 | 32034 ft | 470 kts | 258° |
| 2026-04-19 08:11 | 41.99220 | 62.27330 | 32034 ft | 470 kts | 258° |
| 2026-04-19 08:12 | 41.97152 | 62.19014 | 32033 ft | 469 kts | 258° |
| 2026-04-19 08:12 | 41.95080 | 62.10691 | 32032 ft | 470 kts | 258° |
| 2026-04-19 08:13 | 41.93030 | 62.02361 | 32031 ft | 470 kts | 258° |
| 2026-04-19 08:13 | 41.90972 | 61.94098 | 32028 ft | 470 kts | 258° |
| 2026-04-19 08:14 | 41.88884 | 61.85797 | 32024 ft | 470 kts | 258° |